Time;durP1;ratioP1;P1;durP2;ratioP2;P2;SDS_P1;SDS_P2;PMS_P1;PMS_P2;Temp;Humidity;BMP_temperature;BMP_pressure;BME280_temperature;BME280_humidity;BME280_pressure;Samples;Min_cycle;Max_cycle;Signal;HPM_P1;HPM_P2
2021/11/20 00:02:09;;;;;;;13.02;6.47;;;;;;;;;;5097087;28;20032;-66
2021/11/20 00:04:35;;;;;;;11.75;6.05;;;;;;;;;;5096533;28;20057;-66
2021/11/20 00:07:03;;;;;;;12.65;5.57;;;;;;;;;;5096807;28;20472;-65
2021/11/20 00:09:29;;;;;;;12.13;6.07;;;;;;;;;;5096341;28;20043;-65
2021/11/20 00:11:57;;;;;;;13.13;5.88;;;;;;;;;;5095806;28;20451;-65
2021/11/20 00:14:24;;;;;;;11.38;5.40;;;;;;;;;;5096603;28;20103;-65
2021/11/20 00:16:52;;;;;;;9.88;5.97;;;;;;;;;;5095304;28;20111;-65
2021/11/20 00:19:18;;;;;;;10.38;5.90;;;;;;;;;;5096415;28;20032;-66
2021/11/20 00:21:46;;;;;;;10.13;5.13;;;;;;;;;;5096565;28;20025;-65
2021/11/20 00:24:18;;;;;;;13.07;5.72;;;;;;;;;;5096568;28;20054;-67
2021/11/20 00:26:45;;;;;;;11.48;5.65;;;;;;;;;;5096129;28;20020;-66
2021/11/20 00:31:42;;;;;;;13.02;5.63;;;;;;;;;;5096411;28;20043;-66
2021/11/20 00:34:12;;;;;;;10.27;5.15;;;;;;;;;;5096145;28;20036;-66
2021/11/20 00:36:39;;;;;;;11.65;5.82;;;;;;;;;;5095064;28;20384;-66
2021/11/20 00:39:06;;;;;;;8.93;5.22;;;;;;;;;;5094937;28;20031;-66
2021/11/20 00:41:32;;;;;;;12.52;6.22;;;;;;;;;;5095777;28;20432;-66
2021/11/20 00:43:58;;;;;;;11.25;5.65;;;;;;;;;;5096081;28;20499;-67
2021/11/20 00:46:27;;;;;;;9.88;5.45;;;;;;;;;;5095676;28;20024;-66
2021/11/20 00:48:53;;;;;;;12.00;5.65;;;;;;;;;;5095733;28;20020;-66
2021/11/20 00:51:21;;;;;;;12.05;5.50;;;;;;;;;;5095974;28;20032;-67
2021/11/20 00:53:48;;;;;;;12.52;6.10;;;;;;;;;;5095524;28;20036;-67
2021/11/20 00:56:15;;;;;;;12.30;6.25;;;;;;;;;;5096117;28;20418;-67
2021/11/20 00:58:42;;;;;;;12.55;6.53;;;;;;;;;;5095851;28;20103;-67
2021/11/20 01:01:11;;;;;;;10.88;5.07;;;;;;;;;;5095410;28;20043;-66
2021/11/20 01:03:37;;;;;;;16.63;7.28;;;;;;;;;;5095782;28;20039;-67
2021/11/20 01:06:03;;;;;;;11.90;5.28;;;;;;;;;;5095644;28;20387;-66
2021/11/20 01:08:31;;;;;;;13.07;5.82;;;;;;;;;;5095469;28;20099;-67
2021/11/20 01:11:00;;;;;;;13.35;6.00;;;;;;;;;;5095828;28;20028;-67
2021/11/20 01:13:26;;;;;;;14.82;6.43;;;;;;;;;;5095404;28;20082;-66
2021/11/20 01:15:58;;;;;;;11.43;5.57;;;;;;;;;;5095144;28;20061;-67
2021/11/20 01:18:25;;;;;;;12.32;5.57;;;;;;;;;;5094197;28;20028;-66
2021/11/20 01:20:53;;;;;;;14.18;6.32;;;;;;;;;;5095358;28;20024;-66
2021/11/20 01:23:20;;;;;;;11.15;5.40;;;;;;;;;;5094832;28;20088;-67
2021/11/20 01:25:47;;;;;;;12.80;6.35;;;;;;;;;;5095279;28;20471;-67
2021/11/20 01:28:14;;;;;;;16.17;5.78;;;;;;;;;;5095595;28;20379;-67
2021/11/20 01:30:40;;;;;;;12.55;5.97;;;;;;;;;;5094883;28;20517;-66
2021/11/20 01:33:06;;;;;;;11.45;6.45;;;;;;;;;;5095142;28;20036;-67
2021/11/20 01:35:33;;;;;;;10.50;5.78;;;;;;;;;;5095163;28;20141;-66
2021/11/20 01:37:59;;;;;;;10.68;5.30;;;;;;;;;;5094714;28;20451;-66
2021/11/20 01:40:28;;;;;;;12.35;5.90;;;;;;;;;;5095066;28;20099;-66
2021/11/20 01:42:55;;;;;;;9.52;5.25;;;;;;;;;;5094660;28;20024;-67
2021/11/20 01:45:30;;;;;;;11.50;5.57;;;;;;;;;;5094958;28;20024;-66
2021/11/20 01:48:09;;;;;;;11.23;5.18;;;;;;;;;;5094965;28;20024;-66
2021/11/20 01:50:37;;;;;;;14.60;5.38;;;;;;;;;;5094765;28;20095;-66
2021/11/20 01:53:21;;;;;;;10.85;5.68;;;;;;;;;;5094688;28;20548;-66
2021/11/20 01:55:50;;;;;;;13.77;6.55;;;;;;;;;;5094736;28;20052;-66
2021/11/20 01:58:20;;;;;;;13.05;7.30;;;;;;;;;;5094051;28;20387;-66
2021/11/20 02:00:55;;;;;;;16.48;7.70;;;;;;;;;;5094673;28;20027;-66
2021/11/20 02:03:28;;;;;;;14.60;7.57;;;;;;;;;;5093330;28;20024;-66
2021/11/20 02:06:14;;;;;;;15.75;7.05;;;;;;;;;;5094248;28;20028;-67
2021/11/20 02:08:50;;;;;;;14.05;7.50;;;;;;;;;;5094374;28;20042;-66
2021/11/20 02:11:19;;;;;;;11.15;5.90;;;;;;;;;;5094387;28;20024;-66
2021/11/20 02:13:46;;;;;;;12.05;6.10;;;;;;;;;;5092870;28;20495;-66
2021/11/20 02:16:16;;;;;;;8.98;5.13;;;;;;;;;;5094318;28;20028;-66
2021/11/20 02:18:53;;;;;;;11.88;5.80;;;;;;;;;;5092666;28;20035;-66
2021/11/20 02:21:44;;;;;;;13.85;6.07;;;;;;;;;;5094569;28;20426;-66
2021/11/20 02:24:10;;;;;;;13.63;5.82;;;;;;;;;;5094365;28;20140;-66
2021/11/20 02:26:36;;;;;;;10.13;5.47;;;;;;;;;;5093776;28;20020;-67
2021/11/20 02:29:05;;;;;;;13.15;5.75;;;;;;;;;;5094077;28;20024;-67
2021/11/20 02:31:31;;;;;;;9.77;5.63;;;;;;;;;;5094089;28;20017;-67
2021/11/20 02:33:57;;;;;;;17.63;6.15;;;;;;;;;;5093657;28;20103;-66
2021/11/20 02:36:24;;;;;;;12.98;5.38;;;;;;;;;;5094026;28;20024;-67
2021/11/20 02:38:59;;;;;;;19.33;6.68;;;;;;;;;;5093979;28;20081;-66
2021/11/20 02:41:26;;;;;;;14.77;5.50;;;;;;;;;;5093521;28;20376;-66
2021/11/20 02:43:53;;;;;;;12.60;5.90;;;;;;;;;;5094139;28;20024;-66
2021/11/20 02:46:22;;;;;;;12.38;6.45;;;;;;;;;;5093720;28;20024;-66
2021/11/20 02:48:49;;;;;;;12.60;5.80;;;;;;;;;;5094078;28;20123;-66
2021/11/20 02:51:17;;;;;;;13.80;5.80;;;;;;;;;;5094039;28;20099;-66
2021/11/20 02:53:46;;;;;;;10.55;6.00;;;;;;;;;;5091938;28;20036;-67
2021/11/20 02:56:14;;;;;;;13.27;6.28;;;;;;;;;;5093953;28;20096;-66
2021/11/20 02:58:40;;;;;;;16.88;6.47;;;;;;;;;;5093924;28;20725;-67
2021/11/20 03:01:15;;;;;;;16.35;5.53;;;;;;;;;;5093360;28;20481;-66
2021/11/20 03:03:41;;;;;;;11.90;6.38;;;;;;;;;;5093613;28;20039;-66
2021/11/20 03:06:07;;;;;;;12.55;6.15;;;;;;;;;;5093670;28;20383;-66
2021/11/20 03:08:33;;;;;;;12.02;6.30;;;;;;;;;;5092951;28;20062;-66
2021/11/20 03:11:00;;;;;;;13.05;6.00;;;;;;;;;;5093580;28;20456;-66
2021/11/20 03:13:26;;;;;;;11.70;5.78;;;;;;;;;;5093264;28;20070;-66
2021/11/20 03:15:52;;;;;;;12.05;6.45;;;;;;;;;;5093232;28;20024;-66
2021/11/20 03:18:18;;;;;;;18.02;6.70;;;;;;;;;;5092360;28;20095;-66
2021/11/20 03:20:45;;;;;;;11.48;5.18;;;;;;;;;;5093442;28;20045;-66
2021/11/20 03:23:22;;;;;;;12.50;5.55;;;;;;;;;;5093095;28;20035;-66
2021/11/20 03:25:48;;;;;;;11.15;5.78;;;;;;;;;;5093509;28;20024;-66
2021/11/20 03:28:15;;;;;;;11.60;5.43;;;;;;;;;;5093646;28;20057;-67
2021/11/20 03:30:41;;;;;;;9.68;5.28;;;;;;;;;;5093246;28;20185;-66
2021/11/20 03:33:08;;;;;;;11.50;4.88;;;;;;;;;;5093279;28;20368;-67
2021/11/20 03:35:34;;;;;;;11.57;5.93;;;;;;;;;;5093161;28;20515;-66
2021/11/20 03:38:01;;;;;;;14.20;6.10;;;;;;;;;;5093427;28;20031;-66
2021/11/20 03:40:27;;;;;;;15.73;6.20;;;;;;;;;;5093224;28;20488;-66
2021/11/20 03:42:53;;;;;;;11.48;5.70;;;;;;;;;;5092837;28;20468;-67
2021/11/20 03:45:21;;;;;;;11.30;5.55;;;;;;;;;;5093395;28;20017;-66
2021/11/20 03:47:47;;;;;;;11.82;6.43;;;;;;;;;;5093232;28;20035;-66
2021/11/20 03:50:14;;;;;;;9.65;5.57;;;;;;;;;;5092805;28;20020;-66
2021/11/20 03:52:41;;;;;;;13.15;5.97;;;;;;;;;;5093229;28;20028;-67
2021/11/20 03:55:08;;;;;;;8.60;5.50;;;;;;;;;;5093153;28;20038;-66
2021/11/20 03:57:35;;;;;;;14.85;6.20;;;;;;;;;;5092727;28;20024;-66
2021/11/20 04:00:01;;;;;;;12.23;5.75;;;;;;;;;;5093456;28;20099;-67
2021/11/20 04:02:27;;;;;;;;;;;;;;;;;;5093490;28;20029;-66
2021/11/20 04:04:53;;;;;;;;;;;;;;;;;;5093177;28;19957;-66
2021/11/20 04:07:19;;;;;;;;;;;;;;;;;;5093380;28;19904;-67
2021/11/20 04:09:45;;;;;;;;;;;;;;;;;;5093449;28;20321;-67
2021/11/20 04:12:11;;;;;;;;;;;;;;;;;;5092848;28;20112;-66
2021/11/20 04:14:36;;;;;;;;;;;;;;;;;;5093495;28;19911;-66
2021/11/20 04:17:02;;;;;;;;;;;;;;;;;;5093399;28;19904;-67
2021/11/20 04:19:28;;;;;;;;;;;;;;;;;;5092007;28;19904;-66
2021/11/20 04:21:54;;;;;;;;;;;;;;;;;;5097017;28;19939;-67
2021/11/20 04:24:20;;;;;;;;;;;;;;;;;;5096981;28;20287;-67
2021/11/20 04:26:46;;;;;;;;;;;;;;;;;;5096533;28;19904;-67
2021/11/20 04:29:12;;;;;;;;;;;;;;;;;;5097136;28;19904;-66
2021/11/20 04:31:39;;;;;;;;;;;;;;;;;;5095172;28;19994;-67
2021/11/20 04:34:04;;;;;;;;;;;;;;;;;;5096735;28;19919;-67
2021/11/20 04:36:31;;;;;;;;;;;;;;;;;;5096724;28;19904;-67
2021/11/20 04:38:56;;;;;;;;;;;;;;;;;;5096468;28;19923;-67
2021/11/20 04:41:22;;;;;;;;;;;;;;;;;;5096691;28;19904;-67
2021/11/20 04:43:48;;;;;;;;;;;;;;;;;;5096654;28;19911;-67
2021/11/20 04:46:14;;;;;;;;;;;;;;;;;;5096165;28;19942;-67
2021/11/20 04:48:40;;;;;;;;;;;;;;;;;;5096485;28;19911;-67
2021/11/20 04:51:06;;;;;;;;;;;;;;;;;;5095248;28;19911;-66
2021/11/20 04:53:32;;;;;;;;;;;;;;;;;;5095984;28;19912;-66
2021/11/20 04:55:58;;;;;;;;;;;;;;;;;;5095150;28;20389;-66
2021/11/20 04:58:24;;;;;;;;;;;;;;;;;;5096885;28;19998;-67
2021/11/20 05:00:51;;;;;;;;;;;;;;;;;;5094580;28;19940;-67
2021/11/20 05:03:17;;;;;;;;;;;;;;;;;;5096250;28;19908;-67
2021/11/20 05:05:43;;;;;;;;;;;;;;;;;;5096178;28;19911;-65
2021/11/20 05:08:09;;;;;;;;;;;;;;;;;;5095801;28;19905;-65
2021/11/20 05:10:35;;;;;;;;;;;;;;;;;;5094714;28;19957;-66
2021/11/20 05:13:01;;;;;;;;;;;;;;;;;;5095724;28;19920;-64
2021/11/20 05:15:27;;;;;;;;;;;;;;;;;;5094281;28;19950;-66
2021/11/20 05:17:53;;;;;;;;;;;;;;;;;;5094641;28;19908;-66
2021/11/20 05:20:19;;;;;;;;;;;;;;;;;;5095970;28;19904;-66
2021/11/20 05:22:45;;;;;;;;;;;;;;;;;;5095413;28;19947;-66
2021/11/20 05:25:11;;;;;;;;;;;;;;;;;;5095757;28;19912;-67
2021/11/20 05:27:37;;;;;;;;;;;;;;;;;;5095706;28;20373;-67
2021/11/20 05:30:06;;;;;;;;;;;;;;;;;;5095311;28;19935;-66
2021/11/20 05:32:32;;;;;;;;;;;;;;;;;;5095536;28;19908;-67
2021/11/20 05:34:58;;;;;;;;;;;;;;;;;;5095163;28;19908;-66
2021/11/20 05:37:24;;;;;;;;;;;;;;;;;;5095525;28;19904;-66
2021/11/20 05:39:50;;;;;;;;;;;;;;;;;;5095365;28;19908;-66
2021/11/20 05:42:16;;;;;;;;;;;;;;;;;;5095049;28;19926;-66
2021/11/20 05:44:42;;;;;;;;;;;;;;;;;;5095453;28;19950;-67
2021/11/20 05:47:08;;;;;;;;;;;;;;;;;;5094084;28;19983;-67
2021/11/20 05:49:34;;;;;;;;;;;;;;;;;;5094920;28;19904;-67
2021/11/20 05:52:00;;;;;;;;;;;;;;;;;;5095285;28;20359;-66
2021/11/20 05:54:26;;;;;;;;;;;;;;;;;;5095480;28;19915;-67
2021/11/20 05:56:52;;;;;;;;;;;;;;;;;;5094702;28;19904;-66
2021/11/20 05:59:18;;;;;;;;;;;;;;;;;;5095123;28;19911;-66
2021/11/20 06:01:45;;;;;;;;;;;;;;;;;;5095358;28;19927;-67
2021/11/20 06:04:11;;;;;;;;;;;;;;;;;;5094714;28;19908;-67
2021/11/20 06:06:37;;;;;;;;;;;;;;;;;;5095035;28;19911;-66
2021/11/20 06:09:03;;;;;;;;;;;;;;;;;;5094970;28;20310;-67
2021/11/20 06:11:29;;;;;;;;;;;;;;;;;;5094277;28;19911;-65
2021/11/20 06:13:55;;;;;;;;;;;;;;;;;;5094731;28;19916;-67
2021/11/20 06:16:21;;;;;;;;;;;;;;;;;;5094718;28;20268;-64
2021/11/20 06:18:47;;;;;;;463.77;214.75;;;;;;;;;;5093551;28;20408;-64
2021/11/20 06:21:13;;;;;;;10.30;5.53;;;;;;;;;;5094219;28;20055;-65
2021/11/20 06:23:40;;;;;;;8.38;4.57;;;;;;;;;;5094347;28;20024;-66
2021/11/20 06:26:07;;;;;;;10.60;6.00;;;;;;;;;;5094000;28;20044;-66
2021/11/20 06:28:34;;;;;;;14.82;4.88;;;;;;;;;;5092898;28;20031;-66
2021/11/20 06:31:01;;;;;;;12.25;5.88;;;;;;;;;;5094207;28;20046;-66
2021/11/20 06:33:27;;;;;;;12.80;6.30;;;;;;;;;;5092635;28;20046;-67
2021/11/20 06:35:53;;;;;;;16.35;8.63;;;;;;;;;;5094090;28;20047;-66
2021/11/20 06:38:20;;;;;;;12.98;6.15;;;;;;;;;;5093881;28;20032;-66
2021/11/20 06:40:47;;;;;;;10.57;5.72;;;;;;;;;;5093966;28;20020;-66
2021/11/20 06:43:14;;;;;;;12.65;6.05;;;;;;;;;;5093610;28;20028;-66
2021/11/20 06:45:42;;;;;;;19.73;10.48;;;;;;;;;;5093952;28;20042;-65
2021/11/20 06:48:09;;;;;;;16.58;9.90;;;;;;;;;;5093952;28;20399;-66
2021/11/20 06:50:36;;;;;;;14.10;6.55;;;;;;;;;;5093917;28;20074;-66
2021/11/20 06:53:08;;;;;;;13.63;7.35;;;;;;;;;;5093573;28;20480;-67
2021/11/20 06:55:35;;;;;;;10.05;6.15;;;;;;;;;;5093903;28;20031;-66
2021/11/20 07:00:45;;;;;;;10.75;6.18;;;;;;;;;;5093546;28;20022;-66
2021/11/20 07:03:23;;;;;;;9.00;4.50;;;;;;;;;;5093697;28;20063;-67
2021/11/20 07:05:51;;;;;;;11.40;5.25;;;;;;;;;;5093953;28;20476;-64
2021/11/20 07:08:17;;;;;;;15.82;8.10;;;;;;;;;;5093126;28;20031;-66
2021/11/20 07:10:44;;;;;;;12.15;6.15;;;;;;;;;;5092367;28;20055;-65
2021/11/20 07:13:12;;;;;;;10.07;5.88;;;;;;;;;;5093361;28;20500;-64
2021/11/20 07:15:38;;;;;;;9.55;5.22;;;;;;;;;;5093104;28;20152;-65
2021/11/20 07:18:05;;;;;;;10.15;4.43;;;;;;;;;;5093481;28;20036;-64
2021/11/20 07:20:32;;;;;;;12.35;5.18;;;;;;;;;;5091860;28;20031;-65
2021/11/20 07:22:59;;;;;;;10.52;4.85;;;;;;;;;;5092120;28;20023;-66
2021/11/20 07:25:26;;;;;;;8.80;4.90;;;;;;;;;;5093479;28;20484;-65
2021/11/20 07:27:53;;;;;;;9.18;5.10;;;;;;;;;;5093616;28;20024;-65
2021/11/20 07:30:21;;;;;;;9.15;4.57;;;;;;;;;;5093379;28;20055;-66
2021/11/20 07:32:47;;;;;;;10.88;5.63;;;;;;;;;;5093561;28;20041;-66
2021/11/20 07:35:22;;;;;;;10.27;5.97;;;;;;;;;;5092998;28;20162;-64
2021/11/20 07:37:48;;;;;;;9.98;5.50;;;;;;;;;;5092379;28;20024;-65
2021/11/20 07:40:14;;;;;;;13.52;5.28;;;;;;;;;;5093320;28;20020;-65
2021/11/20 07:42:40;;;;;;;14.88;7.25;;;;;;;;;;5092911;28;20028;-66
2021/11/20 07:45:06;;;;;;;14.23;6.30;;;;;;;;;;5093239;28;20097;-65
2021/11/20 07:48:20;;;;;;;7.43;4.22;;;;;;;;;;5111915;27;20392;-66
2021/11/20 07:51:36;;;;;;;9.32;4.70;;;;;;;;;;5173585;27;20121;-67
2021/11/20 07:54:02;;;;;;;10.15;4.70;;;;;;;;;;5152449;27;20034;-66
2021/11/20 07:56:29;;;;;;;8.57;4.53;;;;;;;;;;5152035;27;20023;-68
2021/11/20 07:58:56;;;;;;;11.30;5.53;;;;;;;;;;5133820;27;20493;-67
2021/11/20 08:02:48;;;;;;;10.02;5.68;;;;;;;;;;5111057;27;20393;-65
2021/11/20 08:07:08;;;;;;;12.23;5.55;;;;;;;;;;5112000;27;20742;-65
2021/11/20 08:09:35;;;;;;;10.65;4.28;;;;;;;;;;5110884;28;20353;-66
2021/11/20 08:12:01;;;;;;;11.70;4.72;;;;;;;;;;5111238;28;20433;-66
2021/11/20 08:14:28;;;;;;;7.88;4.07;;;;;;;;;;5111134;28;20107;-67
2021/11/20 08:16:54;;;;;;;10.43;5.63;;;;;;;;;;5110801;28;20813;-66
2021/11/20 08:19:20;;;;;;;18.42;6.50;;;;;;;;;;5111144;28;20028;-65
2021/11/20 08:21:47;;;;;;;11.10;5.63;;;;;;;;;;5111043;28;20016;-66
2021/11/20 08:24:41;;;;;;;9.50;4.93;;;;;;;;;;5111349;27;20988;-65
2021/11/20 08:28:30;;;;;;;13.98;8.35;;;;;;;;;;5111444;27;20396;-65
2021/11/20 08:30:56;;;;;;;11.43;5.97;;;;;;;;;;5110901;28;20053;-64
2021/11/20 08:33:23;;;;;;;15.38;7.93;;;;;;;;;;5111434;28;20028;-66
2021/11/20 08:35:50;;;;;;;9.27;5.05;;;;;;;;;;5111199;28;20490;-65
2021/11/20 08:38:16;;;;;;;10.18;4.63;;;;;;;;;;5109465;28;20028;-65
2021/11/20 08:46:06;;;;;;;12.48;7.30;;;;;;;;;;5111146;27;20434;-65
2021/11/20 08:48:32;;;;;;;16.45;8.20;;;;;;;;;;5111298;28;20439;-65
2021/11/20 08:51:00;;;;;;;16.73;8.40;;;;;;;;;;5111179;28;20095;-65
2021/11/20 08:54:39;;;;;;;12.15;6.82;;;;;;;;;;5153286;27;20747;-66
2021/11/20 08:57:06;;;;;;;13.45;6.38;;;;;;;;;;5131644;28;20115;-66
2021/11/20 08:59:32;;;;;;;11.20;6.03;;;;;;;;;;5131329;28;20030;-65
2021/11/20 09:02:01;;;;;;;14.20;7.40;;;;;;;;;;5131591;28;20031;-66
2021/11/20 09:04:31;;;;;;;11.15;6.30;;;;;;;;;;5131773;28;20084;-66
2021/11/20 09:07:06;;;;;;;7.82;4.20;;;;;;;;;;5131243;28;20024;-66
2021/11/20 09:09:40;;;;;;;14.18;6.15;;;;;;;;;;5131614;28;20054;-66
2021/11/20 09:12:13;;;;;;;9.27;4.40;;;;;;;;;;5131717;28;20015;-66
2021/11/20 09:14:50;;;;;;;7.93;3.50;;;;;;;;;;5111103;27;20839;-65
2021/11/20 09:19:22;;;;;;;10.15;5.25;;;;;;;;;;5111563;27;20397;-66
2021/11/20 09:22:32;;;;;;;8.27;3.85;;;;;;;;;;5111442;27;20392;-66
2021/11/20 09:24:58;;;;;;;8.02;4.28;;;;;;;;;;5111280;28;20032;-66
2021/11/20 09:27:24;;;;;;;14.73;10.20;;;;;;;;;;5110773;28;20522;-65
2021/11/20 09:29:50;;;;;;;19.85;8.52;;;;;;;;;;5109912;28;20031;-66
2021/11/20 09:32:17;;;;;;;15.15;7.63;;;;;;;;;;5111128;28;20424;-65
2021/11/20 09:34:43;;;;;;;10.27;5.00;;;;;;;;;;5110824;28;20067;-65
2021/11/20 09:37:09;;;;;;;7.50;4.10;;;;;;;;;;5111076;28;20476;-66
2021/11/20 09:39:37;;;;;;;10.80;5.30;;;;;;;;;;5109652;28;20016;-65
2021/11/20 09:42:03;;;;;;;12.13;5.15;;;;;;;;;;5110477;28;20028;-67
2021/11/20 09:44:34;;;;;;;9.43;4.10;;;;;;;;;;5110889;28;20053;-66
2021/11/20 09:47:09;;;;;;;12.60;5.45;;;;;;;;;;5110961;28;20024;-66
2021/11/20 09:51:02;;;;;;;12.88;7.25;;;;;;;;;;5112005;27;20428;-65
2021/11/20 09:53:29;;;;;;;18.50;7.78;;;;;;;;;;5111212;28;20523;-65
2021/11/20 09:55:58;;;;;;;12.10;6.68;;;;;;;;;;5110754;28;20472;-66
2021/11/20 09:59:20;;;;;;;15.82;8.60;;;;;;;;;;5111316;27;20880;-66
2021/11/20 10:01:52;;;;;;;13.50;6.78;;;;;;;;;;5111448;28;20059;-67
2021/11/20 10:06:29;;;;;;;12.98;5.50;;;;;;;;;;5111662;27;20442;-65
2021/11/20 10:09:13;;;;;;;11.40;6.65;;;;;;;;;;5111967;27;20401;-66
2021/11/20 10:11:58;;;;;;;11.93;7.35;;;;;;;;;;5111551;28;20439;-66
2021/11/20 10:15:29;;;;;;;9.40;5.10;;;;;;;;;;5111955;27;20453;-66
2021/11/20 10:19:08;;;;;;;15.93;7.15;;;;;;;;;;5133202;27;20391;-67
2021/11/20 10:22:34;;;;;;;19.13;9.02;;;;;;;;;;5111688;27;20392;-65
2021/11/20 10:25:10;;;;;;;16.65;7.10;;;;;;;;;;5110906;28;20034;-66
2021/11/20 10:28:50;;;;;;;23.50;14.80;;;;;;;;;;5111522;27;20385;-66
2021/11/20 10:33:20;;;;;;;10.10;5.43;;;;;;;;;;5112052;27;20397;-65
2021/11/20 10:35:48;;;;;;;10.57;5.25;;;;;;;;;;5111557;28;20038;-67
2021/11/20 10:38:22;;;;;;;10.05;5.07;;;;;;;;;;5111181;28;20051;-67
2021/11/20 10:40:57;;;;;;;13.98;6.57;;;;;;;;;;5111256;28;20016;-67
2021/11/20 10:50:35;;;;;;;9.07;5.07;;;;;;;;;;5111365;27;20392;-66
2021/11/20 10:53:14;;;;;;;11.80;5.18;;;;;;;;;;5109744;28;20043;-66
2021/11/20 10:59:23;;;;;;;16.30;7.75;;;;;;;;;;5111034;27;20381;-66
2021/11/20 11:02:19;;;;;;;11.48;5.35;;;;;;;;;;5111325;28;20024;-67
2021/11/20 11:05:43;;;;;;;10.90;5.20;;;;;;;;;;5111355;27;20401;-66
2021/11/20 11:08:22;;;;;;;13.75;6.93;;;;;;;;;;5111355;28;20028;-66
2021/11/20 11:13:00;;;;;;;11.45;5.47;;;;;;;;;;5111254;27;20465;-66
2021/11/20 11:18:14;;;;;;;9.30;5.10;;;;;;;;;;5112104;27;20384;-67
2021/11/20 11:20:41;;;;;;;10.23;5.47;;;;;;;;;;5110913;28;20023;-67
2021/11/20 11:23:22;;;;;;;7.07;4.07;;;;;;;;;;5111181;28;20413;-67
2021/11/20 11:25:57;;;;;;;9.20;3.85;;;;;;;;;;5111279;28;20030;-67
2021/11/20 11:31:05;;;;;;;12.85;4.78;;;;;;;;;;5111892;27;20446;-66
2021/11/20 11:33:35;;;;;;;10.27;5.22;;;;;;;;;;5111320;28;20100;-66
2021/11/20 11:38:14;;;;;;;10.85;6.15;;;;;;;;;;5111562;27;20435;-69
2021/11/20 11:40:46;;;;;;;7.40;3.75;;;;;;;;;;5110018;28;20480;-66
2021/11/20 11:43:15;;;;;;;6.07;3.20;;;;;;;;;;5109988;28;20030;-67
2021/11/20 11:45:47;;;;;;;6.43;3.45;;;;;;;;;;5111441;28;20352;-67
2021/11/20 11:51:20;;;;;;;10.63;4.32;;;;;;;;;;5112172;27;20902;-66
2021/11/20 11:55:19;;;;;;;6.97;3.38;;;;;;;;;;5111515;27;20455;-66
2021/11/20 11:58:04;;;;;;;9.27;4.30;;;;;;;;;;5109960;28;20028;-66
2021/11/20 12:00:33;;;;;;;12.10;5.82;;;;;;;;;;5111850;28;20024;-68
2021/11/20 12:04:12;;;;;;;8.82;5.18;;;;;;;;;;5110777;27;20393;-67
2021/11/20 12:09:31;;;;;;;9.07;4.60;;;;;;;;;;5111337;27;20396;-66
2021/11/20 12:12:06;;;;;;;12.57;7.22;;;;;;;;;;5111315;28;20024;-66
2021/11/20 12:16:36;;;;;;;17.38;7.95;;;;;;;;;;5111281;27;20442;-67
2021/11/20 12:21:04;;;;;;;9.45;4.35;;;;;;;;;;5111909;27;20480;-66
2021/11/20 12:24:19;;;;;;;8.82;4.90;;;;;;;;;;5111411;27;20393;-67
2021/11/20 12:26:51;;;;;;;9.13;4.60;;;;;;;;;;5110062;28;20483;-67
2021/11/20 12:30:20;;;;;;;15.98;7.30;;;;;;;;;;5111336;27;20404;-67
2021/11/20 12:34:47;;;;;;;8.80;4.70;;;;;;;;;;5111627;27;20439;-68
2021/11/20 12:37:21;;;;;;;9.35;4.72;;;;;;;;;;5109769;28;20114;-67
2021/11/20 12:40:05;;;;;;;9.27;4.50;;;;;;;;;;5111296;28;20020;-66
2021/11/20 12:42:31;;;;;;;16.30;4.70;;;;;;;;;;5111263;28;20048;-67
2021/11/20 12:46:56;;;;;;;5.95;3.53;;;;;;;;;;5111717;27;20462;-66
2021/11/20 12:49:34;;;;;;;6.53;3.65;;;;;;;;;;5111600;28;20521;-67
2021/11/20 12:52:17;;;;;;;11.15;4.57;;;;;;;;;;5111335;27;20385;-66
2021/11/20 12:54:53;;;;;;;7.10;3.97;;;;;;;;;;5111520;28;20048;-66
2021/11/20 12:57:40;;;;;;;7.75;3.95;;;;;;;;;;5110265;28;20019;-66
2021/11/20 13:00:10;;;;;;;9.20;3.90;;;;;;;;;;5110979;28;20535;-66
2021/11/20 13:02:39;;;;;;;9.70;5.15;;;;;;;;;;5111095;28;20527;-66
2021/11/20 13:07:21;;;;;;;9.77;4.72;;;;;;;;;;5131437;27;20112;-66
2021/11/20 13:10:06;;;;;;;10.18;5.13;;;;;;;;;;5111841;28;20034;-67
2021/11/20 13:13:37;;;;;;;9.85;4.63;;;;;;;;;;5111020;27;20950;-67
2021/11/20 13:17:17;;;;;;;7.25;3.42;;;;;;;;;;5111168;27;20117;-65
2021/11/20 13:19:47;;;;;;;8.63;3.47;;;;;;;;;;5111010;28;20472;-67
2021/11/20 13:22:15;;;;;;;10.05;4.47;;;;;;;;;;5111125;28;20506;-66
2021/11/20 13:24:47;;;;;;;12.32;4.63;;;;;;;;;;5111174;28;20035;-67
2021/11/20 13:27:37;;;;;;;10.57;5.90;;;;;;;;;;5109556;28;20023;-67
2021/11/20 13:30:03;;;;;;;12.90;6.57;;;;;;;;;;5100475;28;20101;-67
2021/11/20 13:33:46;;;;;;;7.53;4.07;;;;;;;;;;5111602;27;20400;-66
2021/11/20 13:36:13;;;;;;;12.73;4.72;;;;;;;;;;5111602;28;20023;-66
2021/11/20 13:38:39;;;;;;;10.23;5.53;;;;;;;;;;5111129;28;20048;-66
2021/11/20 13:41:06;;;;;;;8.88;4.20;;;;;;;;;;5110857;28;20047;-66
2021/11/20 13:43:38;;;;;;;8.10;5.22;;;;;;;;;;5111200;28;20103;-66
2021/11/20 13:46:09;;;;;;;11.05;4.95;;;;;;;;;;5111228;28;20491;-66
2021/11/20 13:48:36;;;;;;;12.98;8.07;;;;;;;;;;5110683;28;20016;-66
2021/11/20 13:52:45;;;;;;;20.27;11.95;;;;;;;;;;5173738;27;20132;-65
2021/11/20 13:55:13;;;;;;;8.00;4.30;;;;;;;;;;5152043;27;20062;-65
2021/11/20 13:57:40;;;;;;;11.02;4.70;;;;;;;;;;5152473;27;20023;-66
2021/11/20 14:01:57;;;;;;;9.75;5.18;;;;;;;;;;5111327;27;20454;-66
2021/11/20 14:05:34;;;;;;;10.75;5.47;;;;;;;;;;5111497;27;20405;-66
2021/11/20 14:09:19;;;;;;;10.48;6.13;;;;;;;;;;5111559;27;20457;-66
2021/11/20 14:12:02;;;;;;;8.95;5.07;;;;;;;;;;5110174;28;20506;-66
2021/11/20 14:14:28;;;;;;;;;;;;;;;;;;5111653;28;20031;-67
2021/11/20 14:19:27;;;;;;;14.35;6.38;;;;;;;;;;5111892;27;20392;-66
2021/11/20 14:23:44;;;;;;;10.73;4.93;;;;;;;;;;5111037;27;20442;-67
2021/11/20 14:28:14;;;;;;;14.73;8.35;;;;;;;;;;5111988;27;20397;-67
2021/11/20 14:30:44;;;;;;;16.92;9.23;;;;;;;;;;5111103;28;20024;-66
2021/11/20 14:35:56;;;;;;;12.43;5.03;;;;;;;;;;5111318;27;20396;-66
2021/11/20 14:38:22;;;;;;;15.15;7.68;;;;;;;;;;5110869;28;20023;-66
2021/11/20 14:40:52;;;;;;;12.73;7.22;;;;;;;;;;5111520;28;20059;-67
2021/11/20 14:43:23;;;;;;;13.63;8.02;;;;;;;;;;5111503;28;20024;-66
2021/11/20 14:45:49;;;;;;;17.48;10.52;;;;;;;;;;5110872;28;20043;-67
2021/11/20 14:48:26;;;;;;;17.88;10.85;;;;;;;;;;5111139;28;20024;-66
2021/11/20 14:50:53;;;;;;;33.88;19.23;;;;;;;;;;5110682;28;20077;-67
2021/11/20 14:53:20;;;;;;;34.35;20.20;;;;;;;;;;5110943;28;20030;-66
2021/11/20 14:55:49;;;;;;;72.53;28.95;;;;;;;;;;5111112;28;20383;-66
2021/11/20 14:58:16;;;;;;;35.45;18.38;;;;;;;;;;5110470;28;20020;-65
2021/11/20 15:03:00;;;;;;;23.08;14.35;;;;;;;;;;5111469;27;20760;-67
2021/11/20 15:06:49;;;;;;;25.15;14.50;;;;;;;;;;5111054;27;20462;-66
2021/11/20 15:12:34;;;;;;;35.90;17.15;;;;;;;;;;5111328;27;20392;-65
2021/11/20 15:15:28;;;;;;;27.83;16.30;;;;;;;;;;5111843;27;20389;-65
2021/11/20 15:17:54;;;;;;;24.15;14.32;;;;;;;;;;5111128;28;20468;-66
2021/11/20 15:22:05;;;;;;;26.00;14.93;;;;;;;;;;5111927;27;20393;-66
2021/11/20 15:25:22;;;;;;;23.00;12.55;;;;;;;;;;5111306;27;20864;-65
2021/11/20 15:27:49;;;;;;;25.25;14.00;;;;;;;;;;5111004;28;20028;-66
2021/11/20 15:32:20;;;;;;;30.15;18.70;;;;;;;;;;5111582;27;20405;-67
2021/11/20 15:34:46;;;;;;;22.80;13.25;;;;;;;;;;5109665;28;20031;-65
2021/11/20 15:38:15;;;;;;;20.63;12.90;;;;;;;;;;5112133;27;20393;-65
2021/11/20 15:41:31;;;;;;;19.42;12.10;;;;;;;;;;5111143;27;20915;-65
2021/11/20 15:44:27;;;;;;;20.23;10.27;;;;;;;;;;5111611;27;20461;-66
2021/11/20 15:46:54;;;;;;;24.60;14.35;;;;;;;;;;5111466;28;20027;-66
2021/11/20 15:49:21;;;;;;;20.55;12.55;;;;;;;;;;5109888;28;20024;-66
2021/11/20 15:51:47;;;;;;;29.55;19.13;;;;;;;;;;5111236;28;20099;-67
2021/11/20 15:56:04;;;;;;;32.38;18.83;;;;;;;;;;5110944;27;20895;-66
2021/11/20 16:00:33;;;;;;;26.88;19.05;;;;;;;;;;5112013;27;20977;-65
2021/11/20 16:02:59;;;;;;;25.77;18.85;;;;;;;;;;5110777;28;20024;-67
2021/11/20 16:08:13;;;;;;;32.70;20.40;;;;;;;;;;5111234;27;20753;-67
2021/11/20 16:10:41;;;;;;;42.78;27.80;;;;;;;;;;5111194;28;20028;-67
2021/11/20 16:13:07;;;;;;;33.35;19.55;;;;;;;;;;5111199;28;20058;-65
2021/11/20 16:15:33;;;;;;;33.30;21.02;;;;;;;;;;5110799;28;20031;-66
2021/11/20 16:17:59;;;;;;;31.05;19.70;;;;;;;;;;5111159;28;20020;-66
2021/11/20 16:20:26;;;;;;;28.65;17.05;;;;;;;;;;5111221;28;20049;-66
2021/11/20 16:22:52;;;;;;;27.55;14.60;;;;;;;;;;5109497;28;20020;-65
2021/11/20 16:25:18;;;;;;;27.88;14.68;;;;;;;;;;5111030;28;20103;-67
2021/11/20 16:29:31;;;;;;;19.30;11.43;;;;;;;;;;5111303;27;20743;-68
2021/11/20 16:31:58;;;;;;;15.38;9.35;;;;;;;;;;5111663;28;20472;-67
2021/11/20 16:35:23;;;;;;;15.35;9.32;;;;;;;;;;5111562;27;20346;-67
2021/11/20 16:38:20;;;;;;;14.50;8.13;;;;;;;;;;5110919;27;20458;-66
2021/11/20 16:40:46;;;;;;;18.10;9.45;;;;;;;;;;5111375;28;20031;-66
2021/11/20 16:43:13;;;;;;;19.80;11.93;;;;;;;;;;5111122;28;20024;-66
2021/11/20 16:45:42;;;;;;;19.60;11.70;;;;;;;;;;5111439;28;20039;-67
2021/11/20 16:48:09;;;;;;;20.55;10.88;;;;;;;;;;5111064;28;20464;-67
2021/11/20 16:52:37;;;;;;;20.45;11.05;;;;;;;;;;5111742;27;20384;-67
2021/11/20 16:55:03;;;;;;;23.13;14.27;;;;;;;;;;5111360;28;20035;-67